createdAt,value
2022-12-03T00:00:38.263Z,101525.28
2022-12-03T00:03:11.353Z,101524.41
2022-12-03T00:05:48.816Z,101525.28
2022-12-03T00:08:19.500Z,101524.38
2022-12-03T00:10:49.152Z,101531.41
2022-12-03T00:13:16.181Z,101528.75
2022-12-03T00:15:43.648Z,101521.81
2022-12-03T00:18:10.757Z,101527.91
2022-12-03T00:20:49.686Z,101523.53
2022-12-03T00:23:28.330Z,101526.16
2022-12-03T00:25:55.391Z,101523.50
2022-12-03T00:28:26.100Z,101527.00
2022-12-03T00:30:55.830Z,101526.97
2022-12-03T00:33:28.462Z,101530.47
2022-12-03T00:35:55.292Z,101525.16
2022-12-03T00:38:23.638Z,101523.44
2022-12-03T00:40:56.861Z,101529.59
2022-12-03T00:43:29.501Z,101525.19
2022-12-03T00:45:58.103Z,101516.44
2022-12-03T00:48:27.791Z,101519.97
2022-12-03T00:51:00.727Z,101526.06
2022-12-03T00:53:27.971Z,101516.44
2022-12-03T00:55:54.858Z,101519.94
2022-12-03T00:58:22.919Z,101530.38
2022-12-03T01:00:55.825Z,101534.75
2022-12-03T01:03:25.859Z,101530.38
2022-12-03T01:05:53.191Z,101527.75
2022-12-03T01:08:32.099Z,101530.34
2022-12-03T01:10:58.881Z,101527.75
2022-12-03T01:13:30.597Z,101530.34
2022-12-03T01:16:05.994Z,101527.75
2022-12-03T01:18:35.424Z,101522.53
2022-12-03T01:21:08.517Z,101529.53
2022-12-03T01:23:40.837Z,101524.28
2022-12-03T01:26:19.442Z,101527.72
2022-12-03T01:28:49.605Z,101517.25
2022-12-03T01:31:45.680Z,101521.59
2022-12-03T01:34:17.991Z,101515.53
2022-12-03T01:36:54.878Z,101515.53
2022-12-03T01:39:24.770Z,101516.44
2022-12-03T01:41:58.874Z,101517.28
2022-12-03T01:44:32.927Z,101514.66
2022-12-03T01:47:07.798Z,101495.50
2022-12-03T01:50:03.818Z,101498.09
2022-12-03T01:52:39.510Z,101498.94
2022-12-03T01:55:20.185Z,101516.38
2022-12-03T01:58:06.411Z,101513.75
2022-12-03T02:00:37.521Z,101512.88
2022-12-03T02:03:12.194Z,101506.78
2022-12-03T02:05:39.427Z,101507.59
2022-12-03T02:08:33.724Z,101510.25
2022-12-03T02:11:09.175Z,101512.84
2022-12-03T02:13:39.043Z,101514.56
2022-12-03T02:16:06.325Z,101518.94
2022-12-03T02:18:33.410Z,101510.22
2022-12-03T02:21:17.209Z,101506.75
2022-12-03T02:23:53.038Z,101510.22
2022-12-03T02:26:19.960Z,101514.59
2022-12-03T02:28:51.804Z,101509.38
2022-12-03T02:31:18.819Z,101507.63
2022-12-03T02:33:45.839Z,101501.50
2022-12-03T02:36:13.412Z,101498.00
2022-12-03T02:38:42.144Z,101486.72
2022-12-03T02:41:34.619Z,101484.94
2022-12-03T02:44:02.562Z,101487.56
2022-12-03T02:46:29.926Z,101487.56
2022-12-03T02:48:57.506Z,101484.09
2022-12-03T02:51:27.494Z,101481.44
2022-12-03T02:53:56.698Z,101467.47
2022-12-03T02:56:29.995Z,101475.31
2022-12-03T02:59:01.476Z,101473.59
2022-12-03T03:01:28.488Z,101474.47
2022-12-03T03:03:56.271Z,101471.03
2022-12-03T03:06:23.384Z,101467.53
2022-12-03T03:08:50.481Z,101471.88
2022-12-03T03:11:22.001Z,101477.94
2022-12-03T03:13:48.934Z,101470.13
2022-12-03T03:16:15.965Z,101470.97
2022-12-03T03:18:44.055Z,101465.78
2022-12-03T03:21:13.256Z,101458.78
2022-12-03T03:23:40.049Z,101458.78
2022-12-03T03:26:14.059Z,101457.91
2022-12-03T03:28:45.008Z,101458.78
2022-12-03T03:31:16.522Z,101452.66
2022-12-03T03:33:45.386Z,101452.69
2022-12-03T03:36:14.645Z,101446.56
2022-12-03T03:38:45.095Z,101450.94
2022-12-03T03:41:13.555Z,101450.06
2022-12-03T03:43:42.450Z,101457.03
2022-12-03T03:46:09.859Z,101452.69
2022-12-03T03:48:36.688Z,101456.16
2022-12-03T03:51:09.677Z,101449.19
2022-12-03T03:53:40.519Z,101451.81
2022-12-03T03:56:08.327Z,101452.72
2022-12-03T03:58:35.606Z,101454.44
2022-12-03T04:01:02.489Z,101445.69
2022-12-03T04:03:29.353Z,101443.97
2022-12-03T04:05:56.259Z,101442.22
2022-12-03T04:08:23.192Z,101441.34
2022-12-03T04:11:08.527Z,101436.13
2022-12-03T04:13:35.280Z,101435.22
2022-12-03T04:16:02.260Z,101440.47
2022-12-03T04:18:44.159Z,101434.38
2022-12-03T04:21:33.842Z,101448.34
2022-12-03T04:24:02.995Z,101437.88
2022-12-03T04:26:48.492Z,101434.41
2022-12-03T04:29:16.494Z,101427.41
2022-12-03T04:32:05.910Z,101430.91
2022-12-03T04:34:52.211Z,101430.91
2022-12-03T04:37:19.712Z,101449.16
2022-12-03T04:39:46.614Z,101431.78
2022-12-03T04:42:13.489Z,101435.22
2022-12-03T04:44:43.237Z,101430.91
2022-12-03T04:47:16.052Z,101423.03
2022-12-03T04:49:47.548Z,101422.19
2022-12-03T04:52:18.174Z,101423.03
2022-12-03T04:54:45.733Z,101420.47
2022-12-03T04:57:15.687Z,101411.72
2022-12-03T04:59:48.032Z,101410.84
2022-12-03T05:02:17.943Z,101410.81
2022-12-03T05:04:44.743Z,101411.69
2022-12-03T05:07:11.569Z,101403.84
2022-12-03T05:09:38.411Z,101400.38
2022-12-03T05:12:07.409Z,101403.88
2022-12-03T05:14:34.187Z,101403.84
2022-12-03T05:17:07.115Z,101402.09
2022-12-03T05:19:52.477Z,101403.84
2022-12-03T05:22:19.383Z,101398.63
2022-12-03T05:24:46.155Z,101395.16
2022-12-03T05:27:23.919Z,101398.63
2022-12-03T05:29:51.222Z,101404.75
2022-12-03T05:32:18.149Z,101402.13
2022-12-03T05:34:44.951Z,101400.38
2022-12-03T05:37:17.125Z,101399.53
2022-12-03T05:39:45.845Z,101400.41
2022-12-03T05:42:33.867Z,101399.53
2022-12-03T05:45:03.575Z,101400.41
2022-12-03T05:47:33.472Z,101404.75
2022-12-03T05:50:00.393Z,101410.88
2022-12-03T05:52:27.185Z,101402.16
2022-12-03T05:54:56.756Z,101404.75
2022-12-03T05:57:24.346Z,101399.53
2022-12-03T05:59:51.242Z,101392.56
2022-12-03T06:02:18.124Z,101399.50
2022-12-03T06:04:45.256Z,101396.91
2022-12-03T06:07:14.151Z,101397.78
2022-12-03T06:09:41.428Z,101407.38
2022-12-03T06:12:17.242Z,101400.44
2022-12-03T06:14:45.340Z,101396.03
2022-12-03T06:17:14.667Z,101398.59
2022-12-03T06:19:46.494Z,101397.72
2022-12-03T06:22:14.650Z,101402.13
2022-12-03T06:24:43.032Z,101399.53
2022-12-03T06:27:17.636Z,101408.28
2022-12-03T06:29:44.536Z,101407.38
2022-12-03T06:32:11.394Z,101402.13
2022-12-03T06:34:38.374Z,101408.22
2022-12-03T06:37:05.178Z,101393.44
2022-12-03T06:39:34.039Z,101408.25
2022-12-03T06:42:01.097Z,101397.78
2022-12-03T06:44:30.303Z,101401.25
2022-12-03T06:47:03.205Z,101408.25
2022-12-03T06:49:30.042Z,101410.88
2022-12-03T06:51:59.803Z,101410.00
2022-12-03T06:54:26.672Z,101410.03
2022-12-03T06:56:53.470Z,101406.56
2022-12-03T06:59:20.372Z,101419.66
2022-12-03T07:01:47.207Z,101409.16
2022-12-03T07:04:14.360Z,101404.78
2022-12-03T07:06:47.400Z,101410.88
2022-12-03T07:09:17.524Z,101406.50
2022-12-03T07:11:44.287Z,101396.03
2022-12-03T07:14:13.880Z,101416.97
2022-12-03T07:16:43.532Z,101410.91
2022-12-03T07:19:11.079Z,101406.53
2022-12-03T07:21:37.961Z,101409.13
2022-12-03T07:24:05.090Z,101406.47
2022-12-03T07:26:32.205Z,101410.84
2022-12-03T07:28:59.364Z,101401.25
2022-12-03T07:31:26.403Z,101403.84
2022-12-03T07:33:53.466Z,101400.38
2022-12-03T07:36:20.642Z,101409.94
2022-12-03T07:38:47.451Z,101399.50
2022-12-03T07:41:16.634Z,101390.75
2022-12-03T07:43:45.404Z,101388.16
2022-12-03T07:46:15.670Z,101391.63
2022-12-03T07:48:45.808Z,101387.31
2022-12-03T07:51:15.162Z,101387.28
2022-12-03T07:53:42.473Z,101388.13
2022-12-03T07:56:09.449Z,101382.91
2022-12-03T07:58:36.227Z,101386.41
2022-12-03T08:01:03.273Z,101384.69
2022-12-03T08:03:30.111Z,101382.91
2022-12-03T08:05:56.842Z,101393.38
2022-12-03T08:08:24.769Z,101398.59
2022-12-03T08:10:54.261Z,101394.25
2022-12-03T08:13:21.110Z,101389.03
2022-12-03T08:15:47.930Z,101389.91
2022-12-03T08:18:25.097Z,101396.88
2022-12-03T08:20:52.576Z,101397.78
2022-12-03T08:23:21.850Z,101399.53
2022-12-03T08:25:54.398Z,101396.03
2022-12-03T08:28:26.509Z,101398.66
2022-12-03T08:31:26.867Z,101403.00
2022-12-03T08:34:15.815Z,101411.72
2022-12-03T08:36:42.927Z,101406.50
2022-12-03T08:39:28.720Z,101414.34
2022-12-03T08:42:29.453Z,101421.34
2022-12-03T08:45:17.930Z,101423.09
2022-12-03T08:47:44.998Z,101414.38
2022-12-03T08:50:33.254Z,101416.97
2022-12-03T08:53:13.463Z,101417.84
2022-12-03T08:55:56.025Z,101418.75
2022-12-03T08:58:38.284Z,101419.59
2022-12-03T09:01:11.298Z,101423.06
2022-12-03T09:04:15.428Z,101417.91
2022-12-03T09:06:42.579Z,101418.75
2022-12-03T09:09:09.378Z,101412.63
2022-12-03T09:11:36.956Z,101422.22
2022-12-03T09:14:06.316Z,101417.84
2022-12-03T09:16:33.207Z,101417.84
2022-12-03T09:19:00.161Z,101424.84
2022-12-03T09:21:26.908Z,101428.31
2022-12-03T09:23:55.058Z,101433.63
2022-12-03T09:26:21.757Z,101425.69
2022-12-03T09:28:48.555Z,101430.09
2022-12-03T09:31:16.891Z,101430.97
2022-12-03T09:34:02.172Z,101427.50
2022-12-03T09:36:29.384Z,101431.00
2022-12-03T09:38:56.716Z,101424.88
2022-12-03T09:41:33.279Z,101419.63
2022-12-03T09:44:04.891Z,101417.03
2022-12-03T09:46:36.507Z,101412.69
2022-12-03T09:49:12.283Z,101416.16
2022-12-03T09:51:41.099Z,101417.03
2022-12-03T09:54:08.027Z,101411.75
2022-12-03T09:56:38.604Z,101414.41
2022-12-03T09:59:16.661Z,101405.66
2022-12-03T10:01:44.213Z,101399.59
2022-12-03T10:04:11.195Z,101401.34
2022-12-03T10:06:45.305Z,101385.59
2022-12-03T10:09:14.917Z,101386.50
2022-12-03T10:11:41.792Z,101381.25
2022-12-03T10:14:12.212Z,101385.63
2022-12-03T10:16:40.541Z,101390.84
2022-12-03T10:19:18.305Z,101393.47
2022-12-03T10:21:50.820Z,101389.97
2022-12-03T10:24:18.739Z,101390.84
2022-12-03T10:26:52.997Z,101385.63
2022-12-03T10:29:21.170Z,101388.22
2022-12-03T10:32:05.051Z,101380.31
2022-12-03T10:34:42.796Z,101377.72
2022-12-03T10:37:23.217Z,101370.78
2022-12-03T10:39:56.052Z,101369.03
2022-12-03T10:42:26.753Z,101369.03
2022-12-03T10:45:17.354Z,101365.56
2022-12-03T10:48:25.954Z,101368.13
2022-12-03T10:50:56.493Z,101360.28
2022-12-03T10:53:29.101Z,101362.03
2022-12-03T10:56:00.011Z,101362.03
2022-12-03T10:58:36.287Z,101359.38
2022-12-03T11:01:13.688Z,101355.94
2022-12-03T11:03:41.040Z,101362.06
2022-12-03T11:06:19.438Z,101362.94
2022-12-03T11:08:54.733Z,101357.66
2022-12-03T11:11:27.694Z,101360.25
2022-12-03T11:14:04.742Z,101355.09
2022-12-03T11:16:41.184Z,101341.09
2022-12-03T11:19:40.582Z,101339.31
2022-12-03T11:22:09.948Z,101328.84
2022-12-03T11:24:40.465Z,101338.47
2022-12-03T11:27:17.660Z,101338.47
2022-12-03T11:29:52.106Z,101336.72
2022-12-03T11:32:43.919Z,101336.72
2022-12-03T11:35:16.352Z,101339.31
2022-12-03T11:37:43.177Z,101341.09
2022-12-03T11:40:19.818Z,101331.47
2022-12-03T11:42:48.769Z,101333.25
2022-12-03T11:45:19.793Z,101337.59
2022-12-03T11:48:01.475Z,101331.47
2022-12-03T11:50:28.320Z,101324.50
2022-12-03T11:53:17.452Z,101332.34
2022-12-03T11:55:48.936Z,101328.88
2022-12-03T11:58:24.457Z,101328.91
2022-12-03T12:00:56.617Z,101328.91
2022-12-03T12:03:25.937Z,101330.59
2022-12-03T12:06:04.499Z,101334.13
2022-12-03T12:08:32.049Z,101318.44
2022-12-03T12:10:59.145Z,101318.41
2022-12-03T12:13:49.905Z,101312.31
2022-12-03T12:16:52.385Z,101311.41
2022-12-03T12:19:34.906Z,101305.31
2022-12-03T12:22:25.415Z,101307.91
2022-12-03T12:25:02.712Z,101300.94
2022-12-03T12:27:35.572Z,101309.66
2022-12-03T12:30:14.412Z,101304.44
2022-12-03T12:32:54.912Z,101299.22
2022-12-03T12:35:26.098Z,101297.44
2022-12-03T12:38:03.709Z,101291.38
2022-12-03T12:40:34.523Z,101292.22
2022-12-03T12:43:15.304Z,101282.63
2022-12-03T12:45:44.021Z,101290.47
2022-12-03T12:48:26.181Z,101277.38
2022-12-03T12:51:09.147Z,101285.22
2022-12-03T12:53:37.625Z,101282.63
2022-12-03T12:56:32.302Z,101275.63
2022-12-03T12:59:09.790Z,101277.38
2022-12-03T13:01:37.097Z,101285.22
2022-12-03T13:04:13.910Z,101281.75
2022-12-03T13:06:42.231Z,101280.00
2022-12-03T13:09:20.551Z,101278.28
2022-12-03T13:11:53.080Z,101271.28
2022-12-03T13:14:24.240Z,101272.16
2022-12-03T13:16:53.501Z,101273.03
2022-12-03T13:19:24.880Z,101266.03
2022-12-03T13:21:54.037Z,101264.28
2022-12-03T13:24:43.962Z,101261.69
2022-12-03T13:27:36.016Z,101261.66
2022-12-03T13:30:13.988Z,101260.84
2022-12-03T13:32:42.619Z,101252.91
2022-12-03T13:35:35.896Z,101253.78
2022-12-03T13:38:09.179Z,101255.56
2022-12-03T13:40:37.966Z,101252.06
2022-12-03T13:43:12.410Z,101251.19
2022-12-03T13:45:41.421Z,101248.56
2022-12-03T13:48:26.588Z,101248.56
2022-12-03T13:50:54.173Z,101247.69
2022-12-03T13:53:28.370Z,101252.06
2022-12-03T13:56:14.059Z,101233.75
2022-12-03T13:58:41.037Z,101240.72
2022-12-03T14:01:11.992Z,101243.34
2022-12-03T14:03:38.951Z,101235.50
2022-12-03T14:06:06.050Z,101245.09
2022-12-03T14:08:32.943Z,101234.66
2022-12-03T14:11:00.842Z,101241.56
2022-12-03T14:13:28.095Z,101238.94
2022-12-03T14:15:55.310Z,101242.41
2022-12-03T14:18:22.497Z,101238.06
2022-12-03T14:20:49.305Z,101232.81
2022-12-03T14:23:16.464Z,101231.03
2022-12-03T14:25:49.640Z,101235.38
2022-12-03T14:28:16.855Z,101238.88
2022-12-03T14:30:44.203Z,101237.19
2022-12-03T14:33:10.908Z,101225.81
2022-12-03T14:35:40.552Z,101234.53
2022-12-03T14:38:10.413Z,101231.91
2022-12-03T14:40:40.080Z,101229.25
2022-12-03T14:43:07.025Z,101225.78
2022-12-03T14:45:33.903Z,101227.56
2022-12-03T14:48:00.970Z,101231.03
2022-12-03T14:50:28.070Z,101217.03
2022-12-03T14:52:57.714Z,101225.81
2022-12-03T14:55:27.420Z,101230.19
2022-12-03T14:58:01.692Z,101234.56
2022-12-03T15:00:28.431Z,101237.19
2022-12-03T15:02:55.429Z,101233.66
2022-12-03T15:05:28.178Z,101235.44
2022-12-03T15:07:58.224Z,101246.75
2022-12-03T15:10:25.002Z,101236.28
2022-12-03T15:12:51.891Z,101234.50
2022-12-03T15:15:18.623Z,101230.16
2022-12-03T15:17:50.973Z,101237.13
2022-12-03T15:20:20.542Z,101228.41
2022-12-03T15:22:47.897Z,101230.16
2022-12-03T15:25:14.854Z,101234.50
2022-12-03T15:27:42.663Z,101238.03
2022-12-03T15:30:09.903Z,101238.91
2022-12-03T15:32:36.648Z,101241.53
2022-12-03T15:35:03.432Z,101242.38
2022-12-03T15:37:37.783Z,101244.13
2022-12-03T15:40:12.027Z,101241.50
2022-12-03T15:42:39.090Z,101236.25
2022-12-03T15:45:15.341Z,101238.84
2022-12-03T15:47:43.703Z,101241.47
2022-12-03T15:50:10.967Z,101245.84
2022-12-03T15:52:42.571Z,101251.97
2022-12-03T15:55:10.295Z,101249.31
2022-12-03T15:57:38.292Z,101257.22
2022-12-03T16:00:06.637Z,101248.47
2022-12-03T16:02:36.342Z,101263.28
2022-12-03T16:05:05.724Z,101259.75
2022-12-03T16:07:33.013Z,101259.78
2022-12-03T16:09:59.913Z,101267.66
2022-12-03T16:12:26.715Z,101267.66
2022-12-03T16:14:53.607Z,101263.25
2022-12-03T16:17:21.045Z,101256.22
2022-12-03T16:19:49.105Z,101262.38
2022-12-03T16:22:19.400Z,101266.75
2022-12-03T16:24:48.636Z,101265.88
2022-12-03T16:27:15.852Z,101262.38
2022-12-03T16:29:42.648Z,101244.91
2022-12-03T16:32:09.397Z,101259.72
2022-12-03T16:34:36.394Z,101249.25
2022-12-03T16:37:04.984Z,101250.16
2022-12-03T16:39:32.476Z,101249.28
2022-12-03T16:41:59.883Z,101252.75
2022-12-03T16:44:47.443Z,101247.47
2022-12-03T16:47:14.380Z,101244.91
2022-12-03T16:49:41.270Z,101250.13
2022-12-03T16:52:09.642Z,101254.50
2022-12-03T16:54:36.569Z,101255.34
2022-12-03T16:59:44.590Z,101254.50
2022-12-03T17:02:13.070Z,101254.50
2022-12-03T17:04:43.995Z,101260.63
2022-12-03T17:07:21.948Z,101258.88
2022-12-03T17:09:52.325Z,101271.03
2022-12-03T17:12:19.963Z,101260.59
2022-12-03T17:14:50.194Z,101272.84
2022-12-03T17:17:18.685Z,101267.63
2022-12-03T17:19:45.836Z,101269.38
2022-12-03T17:22:14.717Z,101273.72
2022-12-03T17:24:43.020Z,101266.75
2022-12-03T17:27:11.934Z,101270.25
2022-12-03T17:29:43.332Z,101269.34
2022-12-03T17:32:10.387Z,101265.84
2022-12-03T17:34:37.333Z,101265.84
2022-12-03T17:37:07.274Z,101266.75
2022-12-03T17:39:34.770Z,101267.59
2022-12-03T17:42:02.783Z,101266.72
2022-12-03T17:44:29.823Z,101270.22
2022-12-03T17:46:56.908Z,101261.44
2022-12-03T17:49:31.563Z,101261.47
2022-12-03T17:51:59.075Z,101250.13
2022-12-03T17:54:43.258Z,101251.88
2022-12-03T17:57:18.656Z,101254.50
2022-12-03T17:59:45.683Z,101252.69
2022-12-03T18:02:12.680Z,101245.72
2022-12-03T18:04:39.704Z,101243.13
2022-12-03T18:07:06.662Z,101248.31
2022-12-03T18:09:33.753Z,101252.75
2022-12-03T18:12:00.905Z,101250.97
2022-12-03T18:14:28.059Z,101247.53
2022-12-03T18:16:55.133Z,101242.25
2022-12-03T18:19:22.653Z,101244.00
2022-12-03T18:21:49.656Z,101239.66
2022-12-03T18:24:17.913Z,101235.28
2022-12-03T18:26:44.860Z,101235.28
2022-12-03T18:29:11.900Z,101228.31
2022-12-03T18:31:39.107Z,101237.91
2022-12-03T18:34:05.974Z,101228.28
2022-12-03T18:36:37.330Z,101228.28
2022-12-03T18:39:06.191Z,101230.06
2022-12-03T18:41:34.140Z,101223.94
2022-12-03T18:44:08.950Z,101220.41
2022-12-03T18:49:23.049Z,101213.47
2022-12-03T18:51:58.702Z,101216.06
2022-12-03T18:54:26.464Z,101234.41
2022-12-03T18:56:54.568Z,101235.31
2022-12-03T18:59:21.423Z,101233.53
2022-12-03T19:01:49.966Z,101238.75
2022-12-03T19:04:17.882Z,101240.50
2022-12-03T19:06:44.816Z,101241.38
2022-12-03T19:09:11.992Z,101234.41
2022-12-03T19:11:41.946Z,101225.66
2022-12-03T19:14:12.277Z,101231.75
2022-12-03T19:16:40.325Z,101230.81
2022-12-03T19:19:08.975Z,101233.41
2022-12-03T19:21:36.550Z,101243.94
2022-12-03T19:24:23.653Z,101238.72
2022-12-03T19:26:54.901Z,101228.25
2022-12-03T19:29:25.658Z,101217.75
2022-12-03T19:31:53.486Z,101216.84
2022-12-03T19:34:21.743Z,101218.66
2022-12-03T19:36:51.202Z,101216.91
2022-12-03T19:39:24.437Z,101213.44
2022-12-03T19:41:51.316Z,101219.59
2022-12-03T19:44:19.061Z,101218.69
2022-12-03T19:46:51.863Z,101220.44
2022-12-03T19:49:29.063Z,101211.72
2022-12-03T19:51:56.809Z,101205.56
2022-12-03T19:54:24.652Z,101215.16
2022-12-03T19:56:51.791Z,101218.66
2022-12-03T19:59:18.790Z,101213.44
2022-12-03T20:01:45.919Z,101212.53
2022-12-03T20:04:16.089Z,101202.09
2022-12-03T20:06:43.237Z,101195.94
2022-12-03T20:09:18.568Z,101199.50
2022-12-03T20:11:46.254Z,101195.06
2022-12-03T20:14:17.094Z,101208.22
2022-12-03T20:16:45.452Z,101213.47
2022-12-03T20:19:16.256Z,101214.38
2022-12-03T20:21:43.918Z,101210.84
2022-12-03T20:24:17.246Z,101207.28
2022-12-03T20:26:44.359Z,101208.22
2022-12-03T20:29:14.281Z,101202.94
2022-12-03T20:31:43.313Z,101201.22
2022-12-03T20:34:15.821Z,101197.75
2022-12-03T20:36:44.477Z,101202.94
2022-12-03T20:39:15.540Z,101196.84
2022-12-03T20:41:44.454Z,101196.88
2022-12-03T20:44:11.750Z,101194.22
2022-12-03T20:46:39.870Z,101191.59
2022-12-03T20:49:08.052Z,101190.75
2022-12-03T20:51:38.403Z,101195.91
2022-12-03T20:54:08.238Z,101195.09
2022-12-03T20:56:39.592Z,101188.19
2022-12-03T20:59:11.384Z,101189.06
2022-12-03T21:01:39.319Z,101180.34
2022-12-03T21:04:07.859Z,101181.25
2022-12-03T21:06:37.260Z,101170.66
2022-12-03T21:09:08.344Z,101194.22
2022-12-03T21:11:36.575Z,101192.50
2022-12-03T21:14:05.051Z,101178.53
2022-12-03T21:17:07.905Z,101175.09
2022-12-03T21:19:33.922Z,101167.16
2022-12-03T21:22:05.473Z,101159.19
2022-12-03T21:24:36.957Z,101174.88
2022-12-03T21:27:06.522Z,101195.13
2022-12-03T21:29:35.131Z,101194.22
2022-12-03T21:32:03.020Z,101194.22
2022-12-03T21:34:35.903Z,101196.84
2022-12-03T21:37:06.698Z,101195.97
2022-12-03T21:39:37.287Z,101205.59
2022-12-03T21:42:34.718Z,101199.47
2022-12-03T21:44:58.821Z,101210.00
2022-12-03T21:47:26.277Z,101191.66
2022-12-03T21:49:53.337Z,101188.94
2022-12-03T21:52:20.662Z,101189.75
2022-12-03T21:54:47.701Z,101195.06
2022-12-03T21:57:15.122Z,101197.75
2022-12-03T21:59:42.335Z,101197.75
2022-12-03T22:02:12.858Z,101196.88
2022-12-03T22:04:42.734Z,101186.41
2022-12-03T22:07:10.430Z,101170.66
2022-12-03T22:09:37.551Z,101172.34
2022-12-03T22:12:04.689Z,101175.84
2022-12-03T22:14:31.836Z,101172.28
2022-12-03T22:16:59.238Z,101173.25
2022-12-03T22:19:27.064Z,101169.72
2022-12-03T22:21:53.940Z,101157.56
2022-12-03T22:24:21.088Z,101150.63
2022-12-03T22:26:48.334Z,101141.91
2022-12-03T22:29:15.743Z,101135.66
2022-12-03T22:31:42.660Z,101130.53
2022-12-03T22:34:09.479Z,101126.19
2022-12-03T22:36:36.473Z,101121.75
2022-12-03T22:39:06.812Z,101118.25
2022-12-03T22:41:36.659Z,101115.63
2022-12-03T22:44:03.536Z,101111.28
2022-12-03T22:46:31.162Z,101113.91
2022-12-03T22:49:01.812Z,101126.97
2022-12-03T22:51:32.585Z,101120.88
2022-12-03T22:54:01.969Z,101109.53
2022-12-03T22:56:30.740Z,101112.03
2022-12-03T22:58:59.633Z,101116.53
2022-12-03T23:01:35.645Z,101119.16
2022-12-03T23:04:04.959Z,101117.41
2022-12-03T23:06:32.256Z,101126.13
2022-12-03T23:08:59.717Z,101113.03
2022-12-03T23:11:28.493Z,101110.38
2022-12-03T23:13:59.890Z,101095.63
2022-12-03T23:16:30.493Z,101096.50
2022-12-03T23:19:02.957Z,101090.38
2022-12-03T23:21:34.322Z,101087.75
2022-12-03T23:24:02.923Z,101092.94
2022-12-03T23:26:33.563Z,101089.44
2022-12-03T23:29:00.457Z,101076.34
2022-12-03T23:31:30.306Z,101078.97
2022-12-03T23:33:58.303Z,101068.50
2022-12-03T23:36:28.141Z,101059.75
2022-12-03T23:38:55.685Z,101067.56
2022-12-03T23:41:24.049Z,101056.28
2022-12-03T23:43:54.324Z,101056.25
2022-12-03T23:46:24.598Z,101033.47
2022-12-03T23:48:51.897Z,101034.41
2022-12-03T23:51:27.488Z,101017.78
2022-12-03T23:53:55.805Z,101017.75
2022-12-03T23:56:29.353Z,101014.22
2022-12-03T23:58:59.747Z,101021.16
